Mengshan, China
Current Conditions -  °F | °C
As of 12:00 PM on Friday 19 Dec 2014 (Local Time) from ZGKL Reporting Station
Clear Clear  
Wind Chill: 57°   Ceiling: Unl
Heat Index: 57°   Visibility: 6mi
Dew Point: 34°   Wind: 4mph
Humidity: 41%   Direction: 140°SE
Pressure: 30.33"   Gusts: NA
Location:  24.2°N, 110.52°E
Report Text: ZGKL 190400Z 14002MPS CAVOK 14/01 Q1027 NOSIG
Loading
Personal Weather Stations






























Interactive Weather Map New forecast layout! Learn more

10-Day Weather Forecast

Advertisements
Track Severe Weather on mobile